sensor_id;sensor_type;location;lat;lon;timestamp;P1;durP1;ratioP1;P2;durP2;ratioP2
33563;SDS011;19894;48.452;11.494;2023-04-01T00:01:12;0.00;;;0.00;;
33563;SDS011;19894;48.452;11.494;2023-04-01T00:03:39;0.00;;;0.00;;
33563;SDS011;19894;48.452;11.494;2023-04-01T00:06:05;0.00;;;0.00;;
33563;SDS011;19894;48.452;11.494;2023-04-01T00:08:31;0.22;;;0.17;;
33563;SDS011;19894;48.452;11.494;2023-04-01T00:10:56;0.00;;;0.00;;
33563;SDS011;19894;48.452;11.494;2023-04-01T00:13:23;0.00;;;0.00;;
33563;SDS011;19894;48.452;11.494;2023-04-01T00:15:51;0.00;;;0.00;;
33563;SDS011;19894;48.452;11.494;2023-04-01T00:18:17;0.00;;;0.00;;
33563;SDS011;19894;48.452;11.494;2023-04-01T00:20:47;0.00;;;0.00;;
33563;SDS011;19894;48.452;11.494;2023-04-01T00:23:14;0.00;;;0.00;;
33563;SDS011;19894;48.452;11.494;2023-04-01T00:25:40;0.00;;;0.00;;
33563;SDS011;19894;48.452;11.494;2023-04-01T00:28:06;0.00;;;0.00;;
33563;SDS011;19894;48.452;11.494;2023-04-01T00:30:32;0.00;;;0.00;;
33563;SDS011;19894;48.452;11.494;2023-04-01T00:32:58;0.00;;;0.00;;
33563;SDS011;19894;48.452;11.494;2023-04-01T00:35:23;0.00;;;0.00;;
33563;SDS011;19894;48.452;11.494;2023-04-01T00:37:49;0.00;;;0.00;;
33563;SDS011;19894;48.452;11.494;2023-04-01T00:40:23;0.00;;;0.00;;
33563;SDS011;19894;48.452;11.494;2023-04-01T00:43:03;0.00;;;0.00;;
33563;SDS011;19894;48.452;11.494;2023-04-01T00:45:35;0.00;;;0.00;;
33563;SDS011;19894;48.452;11.494;2023-04-01T00:48:08;0.00;;;0.00;;
33563;SDS011;19894;48.452;11.494;2023-04-01T00:50:36;0.00;;;0.00;;
33563;SDS011;19894;48.452;11.494;2023-04-01T00:53:03;0.00;;;0.00;;
33563;SDS011;19894;48.452;11.494;2023-04-01T00:55:32;0.00;;;0.00;;
33563;SDS011;19894;48.452;11.494;2023-04-01T00:58:01;0.00;;;0.00;;
33563;SDS011;19894;48.452;11.494;2023-04-01T01:00:30;0.00;;;0.00;;
33563;SDS011;19894;48.452;11.494;2023-04-01T01:02:56;0.00;;;0.00;;
33563;SDS011;19894;48.452;11.494;2023-04-01T01:05:25;0.00;;;0.00;;
33563;SDS011;19894;48.452;11.494;2023-04-01T01:10:45;0.00;;;0.00;;
33563;SDS011;19894;48.452;11.494;2023-04-01T01:16:15;0.03;;;0.00;;
33563;SDS011;19894;48.452;11.494;2023-04-01T01:21:30;0.00;;;0.00;;
33563;SDS011;19894;48.452;11.494;2023-04-01T01:24:25;0.00;;;0.00;;
33563;SDS011;19894;48.452;11.494;2023-04-01T01:27:12;0.00;;;0.00;;
33563;SDS011;19894;48.452;11.494;2023-04-01T01:29:43;0.00;;;0.00;;
33563;SDS011;19894;48.452;11.494;2023-04-01T01:35:19;0.00;;;0.00;;
33563;SDS011;19894;48.452;11.494;2023-04-01T01:38:11;0.00;;;0.00;;
33563;SDS011;19894;48.452;11.494;2023-04-01T01:40:42;0.20;;;0.00;;
33563;SDS011;19894;48.452;11.494;2023-04-01T01:43:11;0.00;;;0.00;;
33563;SDS011;19894;48.452;11.494;2023-04-01T01:45:43;0.00;;;0.00;;
33563;SDS011;19894;48.452;11.494;2023-04-01T01:48:13;0.00;;;0.00;;
33563;SDS011;19894;48.452;11.494;2023-04-01T01:50:41;0.00;;;0.00;;
33563;SDS011;19894;48.452;11.494;2023-04-01T01:53:10;0.00;;;0.00;;
33563;SDS011;19894;48.452;11.494;2023-04-01T01:55:38;0.38;;;0.00;;
33563;SDS011;19894;48.452;11.494;2023-04-01T01:58:23;0.08;;;0.00;;
33563;SDS011;19894;48.452;11.494;2023-04-01T02:00:51;0.10;;;0.00;;
33563;SDS011;19894;48.452;11.494;2023-04-01T02:03:20;0.00;;;0.00;;
33563;SDS011;19894;48.452;11.494;2023-04-01T02:05:48;0.00;;;0.00;;
33563;SDS011;19894;48.452;11.494;2023-04-01T02:08:18;0.00;;;0.00;;
33563;SDS011;19894;48.452;11.494;2023-04-01T02:10:58;0.00;;;0.00;;
33563;SDS011;19894;48.452;11.494;2023-04-01T02:13:30;0.00;;;0.00;;
33563;SDS011;19894;48.452;11.494;2023-04-01T02:16:02;0.00;;;0.00;;
33563;SDS011;19894;48.452;11.494;2023-04-01T02:18:35;0.00;;;0.00;;
33563;SDS011;19894;48.452;11.494;2023-04-01T02:21:03;0.00;;;0.00;;
33563;SDS011;19894;48.452;11.494;2023-04-01T02:23:30;0.00;;;0.00;;
33563;SDS011;19894;48.452;11.494;2023-04-01T02:26:00;0.00;;;0.00;;
33563;SDS011;19894;48.452;11.494;2023-04-01T02:28:26;0.20;;;0.00;;
33563;SDS011;19894;48.452;11.494;2023-04-01T02:30:54;0.00;;;0.00;;
33563;SDS011;19894;48.452;11.494;2023-04-01T02:33:22;0.00;;;0.00;;
33563;SDS011;19894;48.452;11.494;2023-04-01T02:35:49;0.00;;;0.00;;
33563;SDS011;19894;48.452;11.494;2023-04-01T02:38:15;0.00;;;0.00;;
33563;SDS011;19894;48.452;11.494;2023-04-01T02:40:45;0.00;;;0.00;;
33563;SDS011;19894;48.452;11.494;2023-04-01T02:43:13;0.00;;;0.00;;
33563;SDS011;19894;48.452;11.494;2023-04-01T02:45:39;0.00;;;0.00;;
33563;SDS011;19894;48.452;11.494;2023-04-01T02:48:04;0.10;;;0.00;;
33563;SDS011;19894;48.452;11.494;2023-04-01T02:50:30;0.00;;;0.00;;
33563;SDS011;19894;48.452;11.494;2023-04-01T02:52:55;0.00;;;0.00;;
33563;SDS011;19894;48.452;11.494;2023-04-01T02:55:21;0.00;;;0.00;;
33563;SDS011;19894;48.452;11.494;2023-04-01T02:57:47;0.00;;;0.00;;
33563;SDS011;19894;48.452;11.494;2023-04-01T03:00:12;0.35;;;0.00;;
33563;SDS011;19894;48.452;11.494;2023-04-01T03:02:38;0.00;;;0.00;;
33563;SDS011;19894;48.452;11.494;2023-04-01T03:05:04;0.00;;;0.00;;
33563;SDS011;19894;48.452;11.494;2023-04-01T03:07:31;0.00;;;0.00;;
33563;SDS011;19894;48.452;11.494;2023-04-01T03:09:56;0.00;;;0.00;;
33563;SDS011;19894;48.452;11.494;2023-04-01T03:12:22;0.00;;;0.00;;
33563;SDS011;19894;48.452;11.494;2023-04-01T03:14:47;0.00;;;0.00;;
33563;SDS011;19894;48.452;11.494;2023-04-01T03:17:13;0.00;;;0.00;;
33563;SDS011;19894;48.452;11.494;2023-04-01T03:19:38;0.00;;;0.00;;
33563;SDS011;19894;48.452;11.494;2023-04-01T03:22:04;0.00;;;0.00;;
33563;SDS011;19894;48.452;11.494;2023-04-01T03:24:30;0.00;;;0.00;;
33563;SDS011;19894;48.452;11.494;2023-04-01T03:26:55;0.00;;;0.00;;
33563;SDS011;19894;48.452;11.494;2023-04-01T03:29:21;0.00;;;0.00;;
33563;SDS011;19894;48.452;11.494;2023-04-01T03:31:46;0.00;;;0.00;;
33563;SDS011;19894;48.452;11.494;2023-04-01T03:34:12;0.00;;;0.00;;
33563;SDS011;19894;48.452;11.494;2023-04-01T03:36:38;0.00;;;0.00;;
33563;SDS011;19894;48.452;11.494;2023-04-01T03:39:03;0.00;;;0.00;;
33563;SDS011;19894;48.452;11.494;2023-04-01T03:41:30;0.00;;;0.00;;
33563;SDS011;19894;48.452;11.494;2023-04-01T03:43:57;0.00;;;0.00;;
33563;SDS011;19894;48.452;11.494;2023-04-01T03:46:22;0.00;;;0.00;;
33563;SDS011;19894;48.452;11.494;2023-04-01T03:48:48;0.00;;;0.00;;
33563;SDS011;19894;48.452;11.494;2023-04-01T03:51:13;0.00;;;0.00;;
33563;SDS011;19894;48.452;11.494;2023-04-01T03:53:39;0.00;;;0.00;;
33563;SDS011;19894;48.452;11.494;2023-04-01T03:56:05;0.00;;;0.00;;
33563;SDS011;19894;48.452;11.494;2023-04-01T03:58:31;0.00;;;0.00;;
33563;SDS011;19894;48.452;11.494;2023-04-01T04:00:57;0.00;;;0.00;;
33563;SDS011;19894;48.452;11.494;2023-04-01T04:03:22;0.00;;;0.00;;
33563;SDS011;19894;48.452;11.494;2023-04-01T04:05:48;0.10;;;0.10;;
33563;SDS011;19894;48.452;11.494;2023-04-01T04:08:15;0.00;;;0.00;;
33563;SDS011;19894;48.452;11.494;2023-04-01T04:10:41;0.00;;;0.00;;
33563;SDS011;19894;48.452;11.494;2023-04-01T04:13:06;0.00;;;0.00;;
33563;SDS011;19894;48.452;11.494;2023-04-01T04:15:32;0.00;;;0.00;;
33563;SDS011;19894;48.452;11.494;2023-04-01T04:17:58;0.00;;;0.00;;
33563;SDS011;19894;48.452;11.494;2023-04-01T04:20:23;0.00;;;0.00;;
33563;SDS011;19894;48.452;11.494;2023-04-01T04:22:49;0.10;;;0.00;;
33563;SDS011;19894;48.452;11.494;2023-04-01T04:25:14;0.00;;;0.00;;
33563;SDS011;19894;48.452;11.494;2023-04-01T04:27:40;0.00;;;0.00;;
33563;SDS011;19894;48.452;11.494;2023-04-01T04:30:06;0.00;;;0.00;;
33563;SDS011;19894;48.452;11.494;2023-04-01T04:32:33;0.00;;;0.00;;
33563;SDS011;19894;48.452;11.494;2023-04-01T04:34:58;0.00;;;0.00;;
33563;SDS011;19894;48.452;11.494;2023-04-01T04:37:24;0.00;;;0.00;;
33563;SDS011;19894;48.452;11.494;2023-04-01T04:39:50;0.00;;;0.00;;
33563;SDS011;19894;48.452;11.494;2023-04-01T04:42:16;0.00;;;0.00;;
33563;SDS011;19894;48.452;11.494;2023-04-01T04:44:42;0.00;;;0.00;;
33563;SDS011;19894;48.452;11.494;2023-04-01T04:47:07;0.93;;;0.05;;
33563;SDS011;19894;48.452;11.494;2023-04-01T04:49:33;0.00;;;0.00;;
33563;SDS011;19894;48.452;11.494;2023-04-01T04:51:58;0.00;;;0.00;;
33563;SDS011;19894;48.452;11.494;2023-04-01T04:54:24;0.00;;;0.00;;
33563;SDS011;19894;48.452;11.494;2023-04-01T04:56:53;0.00;;;0.00;;
33563;SDS011;19894;48.452;11.494;2023-04-01T04:59:19;0.00;;;0.00;;
33563;SDS011;19894;48.452;11.494;2023-04-01T05:01:44;0.00;;;0.00;;
33563;SDS011;19894;48.452;11.494;2023-04-01T05:04:10;0.00;;;0.00;;
33563;SDS011;19894;48.452;11.494;2023-04-01T05:06:36;0.00;;;0.00;;
33563;SDS011;19894;48.452;11.494;2023-04-01T05:09:01;0.00;;;0.00;;
33563;SDS011;19894;48.452;11.494;2023-04-01T05:11:27;0.30;;;0.00;;
33563;SDS011;19894;48.452;11.494;2023-04-01T05:13:53;0.00;;;0.00;;
33563;SDS011;19894;48.452;11.494;2023-04-01T05:16:19;0.00;;;0.00;;
33563;SDS011;19894;48.452;11.494;2023-04-01T05:18:45;0.00;;;0.00;;
33563;SDS011;19894;48.452;11.494;2023-04-01T05:21:12;0.00;;;0.00;;
33563;SDS011;19894;48.452;11.494;2023-04-01T05:23:40;0.05;;;0.00;;
33563;SDS011;19894;48.452;11.494;2023-04-01T05:26:10;0.40;;;0.00;;
33563;SDS011;19894;48.452;11.494;2023-04-01T05:28:37;1.45;;;0.00;;
33563;SDS011;19894;48.452;11.494;2023-04-01T05:31:03;0.00;;;0.00;;
33563;SDS011;19894;48.452;11.494;2023-04-01T05:33:30;0.10;;;0.00;;
33563;SDS011;19894;48.452;11.494;2023-04-01T05:35:56;0.08;;;0.08;;
33563;SDS011;19894;48.452;11.494;2023-04-01T05:38:29;0.00;;;0.00;;
33563;SDS011;19894;48.452;11.494;2023-04-01T05:40:58;0.15;;;0.00;;
33563;SDS011;19894;48.452;11.494;2023-04-01T05:43:25;0.00;;;0.00;;
33563;SDS011;19894;48.452;11.494;2023-04-01T05:45:50;0.00;;;0.00;;
33563;SDS011;19894;48.452;11.494;2023-04-01T05:48:16;0.03;;;0.00;;
33563;SDS011;19894;48.452;11.494;2023-04-01T05:50:41;0.00;;;0.00;;
33563;SDS011;19894;48.452;11.494;2023-04-01T05:53:07;0.00;;;0.00;;
33563;SDS011;19894;48.452;11.494;2023-04-01T05:55:34;0.20;;;0.17;;
33563;SDS011;19894;48.452;11.494;2023-04-01T05:58:00;0.00;;;0.00;;
33563;SDS011;19894;48.452;11.494;2023-04-01T06:00:26;0.00;;;0.00;;
33563;SDS011;19894;48.452;11.494;2023-04-01T06:02:52;0.00;;;0.00;;
33563;SDS011;19894;48.452;11.494;2023-04-01T06:05:19;0.00;;;0.00;;
33563;SDS011;19894;48.452;11.494;2023-04-01T06:07:47;0.00;;;0.00;;
33563;SDS011;19894;48.452;11.494;2023-04-01T06:10:14;0.00;;;0.00;;
33563;SDS011;19894;48.452;11.494;2023-04-01T06:12:45;0.28;;;0.00;;
33563;SDS011;19894;48.452;11.494;2023-04-01T06:15:36;0.00;;;0.00;;
33563;SDS011;19894;48.452;11.494;2023-04-01T06:26:34;0.00;;;0.00;;
33563;SDS011;19894;48.452;11.494;2023-04-01T06:29:15;0.00;;;0.00;;
33563;SDS011;19894;48.452;11.494;2023-04-01T06:42:47;0.00;;;0.00;;
33563;SDS011;19894;48.452;11.494;2023-04-01T06:48:14;0.00;;;0.00;;
33563;SDS011;19894;48.452;11.494;2023-04-01T06:53:20;0.00;;;0.00;;
33563;SDS011;19894;48.452;11.494;2023-04-01T06:56:00;0.00;;;0.00;;
33563;SDS011;19894;48.452;11.494;2023-04-01T06:59:08;0.00;;;0.00;;
33563;SDS011;19894;48.452;11.494;2023-04-01T07:01:33;0.00;;;0.00;;
33563;SDS011;19894;48.452;11.494;2023-04-01T07:04:06;0.00;;;0.00;;
33563;SDS011;19894;48.452;11.494;2023-04-01T07:06:47;0.00;;;0.00;;
33563;SDS011;19894;48.452;11.494;2023-04-01T07:09:18;0.00;;;0.00;;
33563;SDS011;19894;48.452;11.494;2023-04-01T07:11:47;0.00;;;0.00;;
33563;SDS011;19894;48.452;11.494;2023-04-01T07:16:45;0.30;;;0.00;;
33563;SDS011;19894;48.452;11.494;2023-04-01T07:19:35;0.00;;;0.00;;
33563;SDS011;19894;48.452;11.494;2023-04-01T07:22:32;0.00;;;0.00;;
33563;SDS011;19894;48.452;11.494;2023-04-01T07:25:05;0.00;;;0.00;;
33563;SDS011;19894;48.452;11.494;2023-04-01T07:27:38;0.00;;;0.00;;
33563;SDS011;19894;48.452;11.494;2023-04-01T07:30:07;0.00;;;0.00;;
33563;SDS011;19894;48.452;11.494;2023-04-01T07:43:22;0.00;;;0.00;;
33563;SDS011;19894;48.452;11.494;2023-04-01T07:49:03;0.00;;;0.00;;
33563;SDS011;19894;48.452;11.494;2023-04-01T07:54:05;0.00;;;0.00;;
33563;SDS011;19894;48.452;11.494;2023-04-01T07:56:42;0.10;;;0.00;;
33563;SDS011;19894;48.452;11.494;2023-04-01T08:02:15;0.00;;;0.00;;
33563;SDS011;19894;48.452;11.494;2023-04-01T08:04:55;0.00;;;0.00;;
33563;SDS011;19894;48.452;11.494;2023-04-01T08:10:22;0.00;;;0.00;;
33563;SDS011;19894;48.452;11.494;2023-04-01T08:12:59;0.00;;;0.00;;
33563;SDS011;19894;48.452;11.494;2023-04-01T08:20:44;0.00;;;0.00;;
33563;SDS011;19894;48.452;11.494;2023-04-01T08:23:37;0.65;;;0.00;;
33563;SDS011;19894;48.452;11.494;2023-04-01T08:26:21;0.00;;;0.00;;
33563;SDS011;19894;48.452;11.494;2023-04-01T08:29:06;0.00;;;0.00;;
33563;SDS011;19894;48.452;11.494;2023-04-01T08:31:43;0.00;;;0.00;;
33563;SDS011;19894;48.452;11.494;2023-04-01T08:34:23;0.00;;;0.00;;
33563;SDS011;19894;48.452;11.494;2023-04-01T08:36:52;0.00;;;0.00;;
33563;SDS011;19894;48.452;11.494;2023-04-01T08:39:31;0.00;;;0.00;;
33563;SDS011;19894;48.452;11.494;2023-04-01T08:56:34;0.00;;;0.00;;
33563;SDS011;19894;48.452;11.494;2023-04-01T09:16:08;0.00;;;0.00;;
33563;SDS011;19894;48.452;11.494;2023-04-01T09:32:47;0.25;;;0.00;;
33563;SDS011;19894;48.452;11.494;2023-04-01T09:35:37;0.00;;;0.00;;
33563;SDS011;19894;48.452;11.494;2023-04-01T09:43:33;0.00;;;0.00;;
33563;SDS011;19894;48.452;11.494;2023-04-01T09:46:14;0.00;;;0.00;;
33563;SDS011;19894;48.452;11.494;2023-04-01T09:51:33;0.00;;;0.00;;
33563;SDS011;19894;48.452;11.494;2023-04-01T10:17:29;0.10;;;0.00;;
33563;SDS011;19894;48.452;11.494;2023-04-01T10:23:07;0.00;;;0.00;;
33563;SDS011;19894;48.452;11.494;2023-04-01T10:39:07;0.00;;;0.00;;
33563;SDS011;19894;48.452;11.494;2023-04-01T10:41:51;0.00;;;0.00;;
33563;SDS011;19894;48.452;11.494;2023-04-01T10:50:29;0.10;;;0.00;;
33563;SDS011;19894;48.452;11.494;2023-04-01T11:03:46;0.00;;;0.00;;
33563;SDS011;19894;48.452;11.494;2023-04-01T11:34:57;0.10;;;0.03;;
33563;SDS011;19894;48.452;11.494;2023-04-01T11:38:00;0.00;;;0.00;;
33563;SDS011;19894;48.452;11.494;2023-04-01T11:40:37;0.03;;;0.00;;
33563;SDS011;19894;48.452;11.494;2023-04-01T11:43:16;0.20;;;0.00;;
33563;SDS011;19894;48.452;11.494;2023-04-01T11:46:04;0.43;;;0.00;;
33563;SDS011;19894;48.452;11.494;2023-04-01T11:54:00;2.53;;;0.03;;
33563;SDS011;19894;48.452;11.494;2023-04-01T12:02:11;0.10;;;0.10;;
33563;SDS011;19894;48.452;11.494;2023-04-01T12:04:49;1.05;;;0.00;;
33563;SDS011;19894;48.452;11.494;2023-04-01T12:07:23;0.30;;;0.10;;
33563;SDS011;19894;48.452;11.494;2023-04-01T12:10:20;0.55;;;0.00;;
33563;SDS011;19894;48.452;11.494;2023-04-01T12:12:54;1.17;;;0.00;;
33563;SDS011;19894;48.452;11.494;2023-04-01T12:21:25;0.20;;;0.03;;
33563;SDS011;19894;48.452;11.494;2023-04-01T12:23:58;1.08;;;0.10;;
33563;SDS011;19894;48.452;11.494;2023-04-01T12:54:24;0.00;;;0.00;;
33563;SDS011;19894;48.452;11.494;2023-04-01T12:57:03;0.00;;;0.00;;
33563;SDS011;19894;48.452;11.494;2023-04-01T13:02:13;0.47;;;0.00;;
33563;SDS011;19894;48.452;11.494;2023-04-01T13:04:48;0.10;;;0.00;;
33563;SDS011;19894;48.452;11.494;2023-04-01T13:07:46;0.00;;;0.00;;
33563;SDS011;19894;48.452;11.494;2023-04-01T13:13:35;0.00;;;0.00;;
33563;SDS011;19894;48.452;11.494;2023-04-01T13:16:34;0.00;;;0.00;;
33563;SDS011;19894;48.452;11.494;2023-04-01T13:19:09;0.13;;;0.13;;
33563;SDS011;19894;48.452;11.494;2023-04-01T13:24:37;0.10;;;0.00;;
33563;SDS011;19894;48.452;11.494;2023-04-01T13:27:21;0.43;;;0.20;;
33563;SDS011;19894;48.452;11.494;2023-04-01T13:32:29;0.03;;;0.00;;
33563;SDS011;19894;48.452;11.494;2023-04-01T13:38:08;0.00;;;0.00;;
33563;SDS011;19894;48.452;11.494;2023-04-01T13:43:16;0.10;;;0.05;;
33563;SDS011;19894;48.452;11.494;2023-04-01T13:57:07;0.03;;;0.00;;
33563;SDS011;19894;48.452;11.494;2023-04-01T13:59:44;0.00;;;0.00;;
33563;SDS011;19894;48.452;11.494;2023-04-01T14:25:10;4.25;;;1.45;;
33563;SDS011;19894;48.452;11.494;2023-04-01T14:28:15;2.22;;;1.08;;
33563;SDS011;19894;48.452;11.494;2023-04-01T14:36:32;3.60;;;1.27;;
33563;SDS011;19894;48.452;11.494;2023-04-01T14:39:21;3.80;;;1.70;;
33563;SDS011;19894;48.452;11.494;2023-04-01T14:50:21;2.03;;;0.90;;
33563;SDS011;19894;48.452;11.494;2023-04-01T14:53:16;3.17;;;1.30;;
33563;SDS011;19894;48.452;11.494;2023-04-01T14:55:49;2.55;;;1.08;;
33563;SDS011;19894;48.452;11.494;2023-04-01T14:58:40;1.75;;;1.15;;
33563;SDS011;19894;48.452;11.494;2023-04-01T15:12:37;4.85;;;0.88;;
33563;SDS011;19894;48.452;11.494;2023-04-01T15:26:26;2.17;;;0.88;;
33563;SDS011;19894;48.452;11.494;2023-04-01T15:34:35;1.83;;;0.70;;
33563;SDS011;19894;48.452;11.494;2023-04-01T15:37:52;1.75;;;0.80;;
33563;SDS011;19894;48.452;11.494;2023-04-01T15:45:38;1.83;;;1.13;;
33563;SDS011;19894;48.452;11.494;2023-04-01T15:51:11;1.02;;;0.65;;
33563;SDS011;19894;48.452;11.494;2023-04-01T15:59:41;2.20;;;0.70;;
33563;SDS011;19894;48.452;11.494;2023-04-01T16:05:42;1.50;;;0.88;;
33563;SDS011;19894;48.452;11.494;2023-04-01T16:17:20;0.88;;;0.57;;
33563;SDS011;19894;48.452;11.494;2023-04-01T16:22:49;0.82;;;0.38;;
33563;SDS011;19894;48.452;11.494;2023-04-01T16:25:39;1.58;;;0.85;;
33563;SDS011;19894;48.452;11.494;2023-04-01T16:28:27;2.58;;;0.77;;
33563;SDS011;19894;48.452;11.494;2023-04-01T16:36:47;2.22;;;0.40;;
33563;SDS011;19894;48.452;11.494;2023-04-01T16:39:33;1.38;;;0.50;;
33563;SDS011;19894;48.452;11.494;2023-04-01T16:42:31;1.07;;;0.57;;
33563;SDS011;19894;48.452;11.494;2023-04-01T16:47:57;1.02;;;0.30;;
33563;SDS011;19894;48.452;11.494;2023-04-01T16:50:59;2.00;;;0.28;;
33563;SDS011;19894;48.452;11.494;2023-04-01T16:53:35;1.30;;;0.20;;
33563;SDS011;19894;48.452;11.494;2023-04-01T17:01:31;0.35;;;0.20;;
33563;SDS011;19894;48.452;11.494;2023-04-01T17:09:59;1.70;;;0.40;;
33563;SDS011;19894;48.452;11.494;2023-04-01T17:13:04;1.25;;;0.47;;
33563;SDS011;19894;48.452;11.494;2023-04-01T17:21:16;0.65;;;0.40;;
33563;SDS011;19894;48.452;11.494;2023-04-01T17:52:24;0.45;;;0.30;;
33563;SDS011;19894;48.452;11.494;2023-04-01T18:20:08;0.17;;;0.13;;
33563;SDS011;19894;48.452;11.494;2023-04-01T18:22:59;0.50;;;0.20;;
33563;SDS011;19894;48.452;11.494;2023-04-01T18:25:47;0.73;;;0.10;;
33563;SDS011;19894;48.452;11.494;2023-04-01T18:30:56;0.10;;;0.10;;
33563;SDS011;19894;48.452;11.494;2023-04-01T18:33:46;0.22;;;0.10;;
33563;SDS011;19894;48.452;11.494;2023-04-01T18:39:07;0.85;;;0.10;;
33563;SDS011;19894;48.452;11.494;2023-04-01T18:44:38;0.20;;;0.15;;
33563;SDS011;19894;48.452;11.494;2023-04-01T18:50:07;0.32;;;0.17;;
33563;SDS011;19894;48.452;11.494;2023-04-01T18:52:41;0.75;;;0.20;;
33563;SDS011;19894;48.452;11.494;2023-04-01T18:55:22;0.32;;;0.30;;
33563;SDS011;19894;48.452;11.494;2023-04-01T18:58:11;0.43;;;0.00;;
33563;SDS011;19894;48.452;11.494;2023-04-01T19:00:39;0.10;;;0.00;;
33563;SDS011;19894;48.452;11.494;2023-04-01T19:03:41;0.32;;;0.10;;
33563;SDS011;19894;48.452;11.494;2023-04-01T19:06:26;0.10;;;0.10;;
33563;SDS011;19894;48.452;11.494;2023-04-01T19:09:09;0.30;;;0.30;;
33563;SDS011;19894;48.452;11.494;2023-04-01T19:17:13;0.22;;;0.10;;
33563;SDS011;19894;48.452;11.494;2023-04-01T19:20:22;1.10;;;0.10;;
33563;SDS011;19894;48.452;11.494;2023-04-01T19:25:48;0.17;;;0.10;;
33563;SDS011;19894;48.452;11.494;2023-04-01T19:36:56;0.57;;;0.00;;
33563;SDS011;19894;48.452;11.494;2023-04-01T19:39:39;0.05;;;0.05;;
33563;SDS011;19894;48.452;11.494;2023-04-01T19:42:20;0.38;;;0.00;;
33563;SDS011;19894;48.452;11.494;2023-04-01T19:59:31;0.10;;;0.00;;
33563;SDS011;19894;48.452;11.494;2023-04-01T20:04:53;0.08;;;0.05;;
33563;SDS011;19894;48.452;11.494;2023-04-01T20:07:31;0.20;;;0.00;;
33563;SDS011;19894;48.452;11.494;2023-04-01T20:15:38;0.20;;;0.00;;
33563;SDS011;19894;48.452;11.494;2023-04-01T20:18:19;0.10;;;0.00;;
33563;SDS011;19894;48.452;11.494;2023-04-01T20:21:17;0.00;;;0.00;;
33563;SDS011;19894;48.452;11.494;2023-04-01T20:23:52;1.55;;;0.03;;
33563;SDS011;19894;48.452;11.494;2023-04-01T20:26:34;0.55;;;0.00;;
33563;SDS011;19894;48.452;11.494;2023-04-01T20:29:27;0.10;;;0.00;;
33563;SDS011;19894;48.452;11.494;2023-04-01T20:37:49;0.17;;;0.00;;
33563;SDS011;19894;48.452;11.494;2023-04-01T20:45:51;0.00;;;0.00;;
33563;SDS011;19894;48.452;11.494;2023-04-01T20:51:19;0.00;;;0.00;;
33563;SDS011;19894;48.452;11.494;2023-04-01T21:07:41;0.00;;;0.00;;
33563;SDS011;19894;48.452;11.494;2023-04-01T21:10:36;0.00;;;0.00;;
33563;SDS011;19894;48.452;11.494;2023-04-01T21:13:15;0.00;;;0.00;;
33563;SDS011;19894;48.452;11.494;2023-04-01T21:18:39;0.40;;;0.10;;
33563;SDS011;19894;48.452;11.494;2023-04-01T21:23:57;0.52;;;0.10;;
33563;SDS011;19894;48.452;11.494;2023-04-01T21:35:07;0.00;;;0.00;;
33563;SDS011;19894;48.452;11.494;2023-04-01T21:51:26;0.25;;;0.10;;
33563;SDS011;19894;48.452;11.494;2023-04-01T21:54:13;0.20;;;0.10;;
33563;SDS011;19894;48.452;11.494;2023-04-01T22:00:14;0.00;;;0.00;;
33563;SDS011;19894;48.452;11.494;2023-04-01T22:05:51;0.05;;;0.03;;
33563;SDS011;19894;48.452;11.494;2023-04-01T22:11:19;0.63;;;0.00;;
33563;SDS011;19894;48.452;11.494;2023-04-01T22:14:05;0.20;;;0.00;;
33563;SDS011;19894;48.452;11.494;2023-04-01T22:21:58;0.00;;;0.00;;
33563;SDS011;19894;48.452;11.494;2023-04-01T22:24:49;0.00;;;0.00;;
33563;SDS011;19894;48.452;11.494;2023-04-01T22:27:29;0.00;;;0.00;;
33563;SDS011;19894;48.452;11.494;2023-04-01T22:32:45;0.15;;;0.00;;
33563;SDS011;19894;48.452;11.494;2023-04-01T22:35:25;0.00;;;0.00;;
33563;SDS011;19894;48.452;11.494;2023-04-01T22:40:52;0.20;;;0.10;;
33563;SDS011;19894;48.452;11.494;2023-04-01T22:43:43;0.08;;;0.08;;
33563;SDS011;19894;48.452;11.494;2023-04-01T22:57:07;0.00;;;0.00;;
33563;SDS011;19894;48.452;11.494;2023-04-01T22:59:53;0.00;;;0.00;;
33563;SDS011;19894;48.452;11.494;2023-04-01T23:02:28;0.25;;;0.00;;
33563;SDS011;19894;48.452;11.494;2023-04-01T23:04:59;0.00;;;0.00;;
33563;SDS011;19894;48.452;11.494;2023-04-01T23:07:33;0.00;;;0.00;;
33563;SDS011;19894;48.452;11.494;2023-04-01T23:13:04;0.10;;;0.00;;
33563;SDS011;19894;48.452;11.494;2023-04-01T23:15:40;0.10;;;0.00;;
33563;SDS011;19894;48.452;11.494;2023-04-01T23:18:22;0.00;;;0.00;;
33563;SDS011;19894;48.452;11.494;2023-04-01T23:23:41;0.00;;;0.00;;
33563;SDS011;19894;48.452;11.494;2023-04-01T23:28:55;0.00;;;0.00;;
33563;SDS011;19894;48.452;11.494;2023-04-01T23:31:38;0.00;;;0.00;;
33563;SDS011;19894;48.452;11.494;2023-04-01T23:34:27;0.10;;;0.00;;
33563;SDS011;19894;48.452;11.494;2023-04-01T23:37:00;0.00;;;0.00;;
33563;SDS011;19894;48.452;11.494;2023-04-01T23:39:30;0.43;;;0.10;;
33563;SDS011;19894;48.452;11.494;2023-04-01T23:42:03;0.00;;;0.00;;
33563;SDS011;19894;48.452;11.494;2023-04-01T23:44:32;0.00;;;0.00;;
33563;SDS011;19894;48.452;11.494;2023-04-01T23:46:59;0.20;;;0.00;;
33563;SDS011;19894;48.452;11.494;2023-04-01T23:49:31;0.00;;;0.00;;
33563;SDS011;19894;48.452;11.494;2023-04-01T23:52:09;0.10;;;0.00;;
33563;SDS011;19894;48.452;11.494;2023-04-01T23:54:43;0.43;;;0.43;;
33563;SDS011;19894;48.452;11.494;2023-04-01T23:57:17;0.00;;;0.00;;
33563;SDS011;19894;48.452;11.494;2023-04-01T23:59:58;0.03;;;0.00;;
